Time;durP1;ratioP1;P1;durP2;ratioP2;P2;SDS_P1;SDS_P2;PMS_P1;PMS_P2;Temp;Humidity;BMP_temperature;BMP_pressure;BME280_temperature;BME280_humidity;BME280_pressure;Samples;Min_cycle;Max_cycle;Signal;HPM_P1;HPM_P2
2023/07/25 00:01:37;;;;;;;1.80;1.27;;;;;;;20.24;100.00;95396.53;5025624;28;20316;-68
2023/07/25 00:04:08;;;;;;;2.88;1.50;;;;;;;20.22;100.00;95387.94;5021557;28;20284;-68
2023/07/25 00:06:36;;;;;;;2.72;1.98;;;;;;;20.15;100.00;95380.41;5028832;28;20220;-68
2023/07/25 00:09:05;;;;;;;3.58;2.13;;;;;;;20.43;100.00;95388.91;5020732;28;20240;-68
2023/07/25 00:11:33;;;;;;;4.13;1.80;;;;;;;20.34;100.00;95388.59;5020189;28;20739;-68
2023/07/25 00:14:01;;;;;;;3.08;1.38;;;;;;;20.38;100.00;95386.22;5017752;28;20205;-68
2023/07/25 00:16:29;;;;;;;2.78;1.85;;;;;;;20.35;100.00;95387.53;5022940;28;20582;-68
2023/07/25 00:18:57;;;;;;;3.58;1.50;;;;;;;20.20;100.00;95378.59;5019736;28;20210;-68
2023/07/25 00:21:25;;;;;;;5.72;1.75;;;;;;;20.24;100.00;95379.69;5025756;28;20329;-68
2023/07/25 00:23:53;;;;;;;3.40;1.55;;;;;;;20.25;100.00;95375.94;5022797;28;20237;-68
2023/07/25 00:26:23;;;;;;;2.85;1.70;;;;;;;20.32;100.00;95379.22;5019701;28;20202;-68
2023/07/25 00:28:52;;;;;;;2.97;1.52;;;;;;;20.15;100.00;95375.88;5027387;28;20366;-68
2023/07/25 00:31:21;;;;;;;3.78;1.70;;;;;;;20.19;100.00;95366.28;5020263;28;20217;-68
2023/07/25 00:33:49;;;;;;;3.42;1.60;;;;;;;20.16;100.00;95366.78;5019556;28;20693;-68
2023/07/25 00:36:17;;;;;;;7.97;1.48;;;;;;;20.16;100.00;95361.41;5027092;28;20320;-68
2023/07/25 00:38:47;;;;;;;3.05;1.20;;;;;;;20.14;100.00;95354.72;5021735;28;20213;-68
2023/07/25 00:41:19;;;;;;;3.28;1.58;;;;;;;19.94;100.00;95347.34;5022764;28;20217;-68
2023/07/25 00:43:48;;;;;;;5.07;2.15;;;;;;;20.23;100.00;95341.41;5027281;28;20682;-68
2023/07/25 00:46:17;;;;;;;3.22;1.38;;;;;;;20.16;100.00;95344.56;5019364;28;20963;-68
2023/07/25 00:48:45;;;;;;;4.28;1.85;;;;;;;20.19;100.00;95342.19;5022757;28;20966;-68
2023/07/25 00:51:16;;;;;;;3.05;1.45;;;;;;;20.30;100.00;95338.50;5026310;28;21243;-68
2023/07/25 00:53:46;;;;;;;6.45;1.52;;;;;;;20.32;100.00;95336.41;5019872;28;21184;-68
2023/07/25 00:56:15;;;;;;;3.22;1.20;;;;;;;20.20;100.00;95341.94;5029239;28;20212;-68
2023/07/25 00:58:43;;;;;;;3.35;1.67;;;;;;;20.15;100.00;95333.09;5021856;28;20210;-68
2023/07/25 01:01:13;;;;;;;3.28;1.50;;;;;;;20.28;100.00;95322.72;5025312;28;20308;-68
2023/07/25 01:03:42;;;;;;;5.95;1.48;;;;;;;20.22;100.00;95328.31;5019596;28;20245;-68
2023/07/25 01:06:14;;;;;;;4.88;2.13;;;;;;;20.32;100.00;95334.50;5023366;28;20300;-68
2023/07/25 01:08:51;;;;;;;2.58;1.23;;;;;;;20.46;100.00;95329.53;5023032;28;20206;-68
2023/07/25 01:11:20;;;;;;;3.03;1.50;;;;;;;20.02;100.00;95313.97;5027547;28;20241;-68
2023/07/25 01:13:48;;;;;;;2.97;1.60;;;;;;;20.11;100.00;95315.13;5022569;28;20212;-68
2023/07/25 01:16:21;;;;;;;2.85;1.45;;;;;;;20.29;100.00;95307.50;5025372;28;20287;-68
2023/07/25 01:18:50;;;;;;;2.38;1.45;;;;;;;20.17;100.00;95309.53;5022461;28;20290;-68
2023/07/25 01:21:21;;;;;;;2.55;1.50;;;;;;;20.26;100.00;95308.00;5019804;28;20233;-68
2023/07/25 01:23:50;;;;;;;3.10;1.42;;;;;;;20.14;100.00;95320.75;5023414;28;21221;-68
2023/07/25 01:26:19;;;;;;;3.38;1.67;;;;;;;20.27;100.00;95321.09;5025213;28;20212;-68
2023/07/25 01:28:47;;;;;;;2.78;1.33;;;;;;;20.10;100.00;95326.88;5026845;28;20209;-68
2023/07/25 01:31:16;;;;;;;4.47;1.80;;;;;;;20.04;100.00;95325.25;5023029;28;20868;-68
2023/07/25 01:33:43;;;;;;;3.05;1.73;;;;;;;19.98;100.00;95318.22;5023903;28;20295;-68
2023/07/25 01:36:11;;;;;;;8.30;1.60;;;;;;;20.01;100.00;95309.69;5018724;28;20665;-68
2023/07/25 01:38:39;;;;;;;3.53;1.48;;;;;;;20.08;100.00;95311.09;5023607;28;20308;-68
2023/07/25 01:41:08;;;;;;;2.78;1.55;;;;;;;20.12;100.00;95303.34;5027471;28;20749;-68
2023/07/25 01:43:37;;;;;;;3.25;1.90;;;;;;;20.51;100.00;95300.91;5021817;28;20206;-68
2023/07/25 01:46:05;;;;;;;4.60;1.90;;;;;;;20.42;100.00;95299.78;5022720;28;20234;-68
2023/07/25 01:48:36;;;;;;;2.08;1.38;;;;;;;20.41;100.00;95300.06;5021130;28;20231;-68
2023/07/25 01:51:04;;;;;;;3.92;1.27;;;;;;;20.41;100.00;95313.44;5018279;28;20229;-68
2023/07/25 01:53:32;;;;;;;1.98;1.30;;;;;;;20.50;100.00;95312.69;5019067;28;20748;-68
2023/07/25 01:56:00;;;;;;;2.85;1.75;;;;;;;20.22;100.00;95317.59;5018530;28;20316;-68
2023/07/25 01:58:28;;;;;;;2.17;1.45;;;;;;;20.02;100.00;95308.63;5021848;28;20209;-68
2023/07/25 02:01:01;;;;;;;3.75;1.25;;;;;;;20.19;100.00;95307.44;5019487;28;20253;-68
2023/07/25 02:03:29;;;;;;;2.05;1.17;;;;;;;19.93;100.00;95296.81;5023622;28;20206;-68
2023/07/25 02:05:57;;;;;;;3.67;1.33;;;;;;;19.94;100.00;95290.41;5017101;28;20300;-68
2023/07/25 02:08:25;;;;;;;3.55;1.55;;;;;;;19.95;100.00;95284.78;5020740;28;20201;-68
2023/07/25 02:10:53;;;;;;;3.58;1.63;;;;;;;19.98;100.00;95278.91;5025974;28;20248;-68
2023/07/25 02:13:24;;;;;;;2.08;1.40;;;;;;;20.15;100.00;95284.94;5022504;28;20973;-68
2023/07/25 02:15:52;;;;;;;3.30;1.50;;;;;;;19.89;100.00;95275.06;5019925;28;20214;-68
2023/07/25 02:18:21;;;;;;;3.08;1.50;;;;;;;20.05;100.00;95271.50;5020461;28;20214;-68
2023/07/25 02:20:49;;;;;;;3.88;1.80;;;;;;;19.88;100.00;95254.78;5026053;28;20227;-68
2023/07/25 02:23:17;;;;;;;4.55;2.10;;;;;;;19.98;100.00;95236.13;5016881;28;20201;-68
2023/07/25 02:25:47;;;;;;;2.95;1.90;;;;;;;20.03;100.00;95222.00;5026058;28;20316;-68
2023/07/25 02:28:15;;;;;;;6.07;1.67;;;;;;;20.04;100.00;95223.63;5019907;28;20286;-68
2023/07/25 02:30:43;;;;;;;4.93;2.40;;;;;;;19.98;100.00;95214.72;5021242;28;20261;-68
2023/07/25 02:33:13;;;;;;;3.42;1.63;;;;;;;19.88;100.00;95206.66;5019762;28;20213;-68
2023/07/25 02:35:42;;;;;;;6.20;2.97;;;;;;;20.06;100.00;95208.91;5025438;28;20206;-68
2023/07/25 02:38:10;;;;;;;4.03;1.65;;;;;;;19.79;100.00;95213.53;5020957;28;20762;-68
2023/07/25 02:40:39;;;;;;;3.22;1.65;;;;;;;19.90;100.00;95225.09;5025788;28;20237;-68
2023/07/25 02:43:08;;;;;;;3.80;1.75;;;;;;;20.07;100.00;95223.09;5019351;28;20761;-68
2023/07/25 02:45:37;;;;;;;3.35;2.05;;;;;;;19.79;100.00;95207.38;5023961;28;20419;-68
2023/07/25 02:48:05;;;;;;;5.07;1.70;;;;;;;19.88;100.00;95209.31;5017311;28;20201;-68
2023/07/25 02:50:33;;;;;;;2.80;1.50;;;;;;;19.85;100.00;95217.84;5024941;28;20782;-68
2023/07/25 02:53:02;;;;;;;2.83;1.65;;;;;;;19.90;100.00;95199.16;5030504;28;20574;-68
2023/07/25 02:55:31;;;;;;;6.72;1.27;;;;;;;19.73;100.00;95179.81;5029424;28;20209;-68
2023/07/25 02:57:59;;;;;;;2.67;1.30;;;;;;;19.46;100.00;95172.13;5018819;28;20202;-68
2023/07/25 03:00:27;;;;;;;2.30;1.33;;;;;;;19.32;100.00;95178.97;5022133;28;20304;-68
2023/07/25 03:02:58;;;;;;;7.63;1.52;;;;;;;19.44;100.00;95176.94;5020020;28;20209;-68
2023/07/25 03:05:28;;;;;;;2.83;1.52;;;;;;;19.44;100.00;95179.63;5020895;28;20288;-68
2023/07/25 03:07:57;;;;;;;5.07;1.20;;;;;;;19.57;100.00;95176.50;5020768;28;20201;-68
2023/07/25 03:10:27;;;;;;;3.70;1.75;;;;;;;19.61;100.00;95176.53;5023356;28;20226;-68
2023/07/25 03:12:54;;;;;;;3.17;1.50;;;;;;;19.47;100.00;95184.44;5025753;28;20212;-68
2023/07/25 03:15:22;;;;;;;1.77;1.00;;;;;;;19.30;100.00;95175.78;5022095;28;20565;-68
2023/07/25 03:17:51;;;;;;;1.83;1.15;;;;;;;19.51;100.00;95170.28;5029355;28;20213;-68
2023/07/25 03:20:19;;;;;;;3.33;1.60;;;;;;;19.45;100.00;95170.53;5023037;28;20781;-68
2023/07/25 03:22:50;;;;;;;4.63;2.33;;;;;;;19.57;100.00;95175.41;5022554;28;20210;-68
2023/07/25 03:25:18;;;;;;;3.15;1.35;;;;;;;19.47;100.00;95173.75;5020848;28;20387;-68
2023/07/25 03:27:48;;;;;;;2.20;1.17;;;;;;;19.64;100.00;95161.84;5018361;28;20232;-68
2023/07/25 03:30:16;;;;;;;3.08;2.00;;;;;;;19.46;100.00;95154.22;5030315;28;20234;-68
2023/07/25 03:32:44;;;;;;;3.90;1.92;;;;;;;19.32;100.00;95155.75;5022012;28;20292;-68
2023/07/25 03:35:12;;;;;;;4.07;1.70;;;;;;;19.45;100.00;95165.19;5018984;28;20242;-68
2023/07/25 03:37:40;;;;;;;2.55;1.35;;;;;;;19.51;100.00;95166.84;5023819;28;20781;-68
2023/07/25 03:40:09;;;;;;;3.42;1.52;;;;;;;19.57;100.00;95179.19;5024324;28;20221;-69
2023/07/25 03:42:37;;;;;;;3.60;1.83;;;;;;;19.33;100.00;95193.94;5022138;28;20213;-69
2023/07/25 03:45:08;;;;;;;3.28;1.55;;;;;;;19.61;100.00;95197.91;5024463;28;20202;-68
2023/07/25 03:47:37;;;;;;;3.17;1.40;;;;;;;19.38;100.00;95199.34;5029734;28;20288;-69
2023/07/25 03:50:06;;;;;;;2.67;1.63;;;;;;;19.45;100.00;95192.72;5017691;28;20305;-69
2023/07/25 03:52:36;;;;;;;2.45;1.40;;;;;;;19.28;100.00;95193.91;5023630;28;20233;-68
2023/07/25 03:55:03;;;;;;;3.97;1.60;;;;;;;19.34;100.00;95198.25;5020214;28;20763;-68
2023/07/25 03:57:31;;;;;;;2.28;1.35;;;;;;;19.38;100.00;95202.81;5022032;28;20709;-69
2023/07/25 03:59:59;;;;;;;4.10;1.85;;;;;;;19.40;100.00;95199.88;5029365;28;20369;-68
2023/07/25 04:02:29;;;;;;;2.97;1.75;;;;;;;19.49;100.00;95199.16;5018907;28;20225;-68
2023/07/25 04:04:57;;;;;;;2.97;1.17;;;;;;;19.33;100.00;95199.28;5020491;28;20372;-68
2023/07/25 04:07:25;;;;;;;5.68;1.48;;;;;;;19.30;100.00;95205.16;5025800;28;20209;-68
2023/07/25 04:09:53;;;;;;;2.65;1.20;;;;;;;19.39;100.00;95209.75;5025148;28;20225;-68
2023/07/25 04:12:21;;;;;;;2.67;1.60;;;;;;;19.44;100.00;95228.50;5025345;28;20221;-68
2023/07/25 04:14:49;;;;;;;3.85;1.88;;;;;;;19.40;100.00;95218.56;5017990;28;20355;-68
2023/07/25 04:17:17;;;;;;;3.00;1.50;;;;;;;19.41;100.00;95214.84;5022016;28;20206;-68
2023/07/25 04:19:46;;;;;;;2.70;1.35;;;;;;;19.57;100.00;95217.38;5018999;28;20213;-68
2023/07/25 04:22:14;;;;;;;3.65;1.50;;;;;;;19.45;100.00;95221.28;5032088;28;20205;-68
2023/07/25 04:24:42;;;;;;;4.75;1.23;;;;;;;19.32;100.00;95235.91;5025655;28;20292;-68
2023/07/25 04:27:10;;;;;;;6.30;1.83;;;;;;;19.42;100.00;95224.47;5020327;28;20216;-68
2023/07/25 04:29:38;;;;;;;4.13;1.88;;;;;;;19.45;100.00;95229.31;5020104;28;20210;-68
2023/07/25 04:32:09;;;;;;;3.08;1.77;;;;;;;19.60;100.00;95228.38;5018751;28;20349;-68
2023/07/25 04:34:37;;;;;;;1.80;1.35;;;;;;;19.53;100.00;95223.50;5022275;28;21074;-68
2023/07/25 04:37:07;;;;;;;4.82;1.85;;;;;;;19.68;100.00;95221.75;5017980;28;20710;-68
2023/07/25 04:39:37;;;;;;;2.83;1.10;;;;;;;19.68;100.00;95222.53;5024013;28;20595;-68
2023/07/25 04:42:06;;;;;;;2.28;1.30;;;;;;;19.58;100.00;95219.78;5027529;28;21079;-68
2023/07/25 04:44:36;;;;;;;2.72;1.40;;;;;;;19.70;100.00;95220.44;5022258;28;20205;-68
2023/07/25 04:47:04;;;;;;;1.60;1.13;;;;;;;19.50;100.00;95221.34;5018833;28;20209;-69
2023/07/25 04:49:35;;;;;;;1.25;0.98;;;;;;;19.69;100.00;95209.97;5027725;28;20305;-68
2023/07/25 04:52:03;;;;;;;2.58;1.42;;;;;;;19.49;100.00;95204.50;5020386;28;20305;-68
2023/07/25 04:54:33;;;;;;;2.40;1.40;;;;;;;19.76;100.00;95191.84;5028103;28;20316;-68
2023/07/25 04:57:04;;;;;;;2.63;1.38;;;;;;;19.69;100.00;95197.44;5027363;28;20205;-68
2023/07/25 04:59:32;;;;;;;6.72;2.13;;;;;;;19.69;100.00;95188.59;5027047;28;20290;-68
2023/07/25 05:02:04;;;;;;;2.90;1.58;;;;;;;19.84;100.00;95180.66;5024764;28;20312;-68
2023/07/25 05:04:32;;;;;;;1.38;0.98;;;;;;;19.73;100.00;95177.13;5023414;28;20284;-68
2023/07/25 05:07:00;;;;;;;2.35;1.23;;;;;;;19.68;100.00;95171.75;5016679;28;20205;-68
2023/07/25 05:09:28;;;;;;;1.80;1.08;;;;;;;19.76;100.00;95157.91;5031042;28;20685;-68
2023/07/25 05:11:58;;;;;;;6.50;1.60;;;;;;;20.02;100.00;95154.34;5030063;28;20233;-68
2023/07/25 05:14:25;;;;;;;2.92;1.00;;;;;;;19.93;100.00;95153.19;5026891;28;20205;-68
2023/07/25 05:16:53;;;;;;;3.90;1.40;;;;;;;19.95;100.00;95143.06;5025915;28;21165;-68
2023/07/25 05:19:21;;;;;;;1.27;1.13;;;;;;;20.01;100.00;95143.88;5018016;28;20202;-68
2023/07/25 05:21:52;;;;;;;2.83;1.60;;;;;;;20.08;100.00;95158.63;5018448;28;20221;-68
2023/07/25 05:24:20;;;;;;;4.18;1.38;;;;;;;20.06;100.00;95158.09;5020767;28;20201;-68
2023/07/25 05:26:49;;;;;;;2.45;1.25;;;;;;;20.08;100.00;95160.50;5025876;28;20502;-68
2023/07/25 05:29:19;;;;;;;5.28;1.60;;;;;;;20.33;100.00;95164.09;5021598;28;20232;-69
2023/07/25 05:31:47;;;;;;;3.30;1.25;;;;;;;20.14;100.00;95168.28;5015747;28;20375;-70
2023/07/25 05:34:15;;;;;;;1.17;0.80;;;;;;;20.12;100.00;95161.59;5018495;28;20216;-69
2023/07/25 05:36:45;;;;;;;1.83;1.30;;;;;;;20.15;100.00;95159.22;5022141;28;20213;-69
2023/07/25 05:39:16;;;;;;;1.40;1.20;;;;;;;20.34;100.00;95160.31;5025076;28;20213;-69
2023/07/25 05:41:44;;;;;;;4.55;1.38;;;;;;;20.24;100.00;95157.63;5027513;28;20321;-69
2023/07/25 05:44:12;;;;;;;2.20;1.42;;;;;;;20.18;100.00;95155.22;5026523;28;20755;-70
2023/07/25 05:46:42;;;;;;;3.22;0.98;;;;;;;20.44;100.00;95155.00;5023241;28;20204;-69
2023/07/25 05:49:13;;;;;;;7.82;1.05;;;;;;;20.30;100.00;95156.56;5017368;28;20210;-69
2023/07/25 05:51:41;;;;;;;2.15;1.05;;;;;;;20.28;100.00;95156.03;5020606;28;21171;-69
2023/07/25 05:54:15;;;;;;;2.30;1.30;;;;;;;20.52;100.00;95157.16;5026332;28;20202;-69
2023/07/25 05:56:43;;;;;;;1.90;1.15;;;;;;;20.32;100.00;95155.25;5022874;28;20931;-69
2023/07/25 05:59:11;;;;;;;2.90;1.23;;;;;;;20.13;100.00;95166.69;5022897;28;20288;-69
2023/07/25 06:01:40;;;;;;;1.70;1.00;;;;;;;20.49;100.00;95157.72;5024393;28;20220;-69
2023/07/25 06:04:11;;;;;;;2.42;1.30;;;;;;;20.50;100.00;95152.09;5021479;28;20582;-69
2023/07/25 06:06:39;;;;;;;3.55;1.30;;;;;;;20.43;100.00;95153.41;5022082;28;20201;-69
2023/07/25 06:09:09;;;;;;;2.00;1.20;;;;;;;20.09;100.00;95154.09;5025478;28;20213;-69
2023/07/25 06:11:37;;;;;;;3.47;1.60;;;;;;;20.16;100.00;95154.66;5020961;28;20235;-69
2023/07/25 06:14:04;;;;;;;2.45;1.23;;;;;;;20.33;100.00;95158.75;5022133;28;20197;-69
2023/07/25 06:16:32;;;;;;;2.85;1.55;;;;;;;20.41;100.00;95156.34;5024613;28;20209;-69
2023/07/25 06:19:02;;;;;;;3.28;1.05;;;;;;;20.65;100.00;95159.38;5020550;28;20809;-69
2023/07/25 06:21:30;;;;;;;3.17;1.67;;;;;;;20.57;100.00;95162.53;5022493;28;20213;-69
2023/07/25 06:24:00;;;;;;;3.33;1.40;;;;;;;20.51;100.00;95163.63;5022623;28;21055;-69
2023/07/25 06:26:28;;;;;;;3.28;1.30;;;;;;;20.70;100.00;95167.41;5025791;28;20198;-69
2023/07/25 06:28:56;;;;;;;3.72;1.23;;;;;;;20.36;100.00;95176.94;5027616;28;20359;-69
2023/07/25 06:31:24;;;;;;;6.85;1.30;;;;;;;20.31;100.00;95182.25;5029818;28;21173;-69
2023/07/25 06:33:55;;;;;;;1.88;1.20;;;;;;;20.10;100.00;95185.09;5023771;28;20210;-69
2023/07/25 06:36:24;;;;;;;6.78;1.70;;;;;;;20.02;100.00;95182.94;5027004;28;20209;-69
2023/07/25 06:38:52;;;;;;;2.13;1.30;;;;;;;19.65;100.00;95192.84;5029141;28;20212;-69
2023/07/25 06:41:20;;;;;;;3.58;1.50;;;;;;;19.48;100.00;95194.06;5024160;28;20333;-69
2023/07/25 06:43:48;;;;;;;2.72;1.40;;;;;;;19.54;100.00;95182.34;5033108;28;21136;-69
2023/07/25 06:46:16;;;;;;;2.20;1.30;;;;;;;19.79;100.00;95183.31;5024952;28;20206;-69
2023/07/25 06:48:44;;;;;;;2.75;1.80;;;;;;;19.78;100.00;95203.09;5031364;28;20289;-69
2023/07/25 06:51:12;;;;;;;4.18;2.05;;;;;;;19.75;100.00;95200.94;5023597;28;20229;-69
2023/07/25 06:53:45;;;;;;;5.60;2.50;;;;;;;19.96;100.00;95190.13;5024357;28;20323;-69
2023/07/25 06:56:13;;;;;;;4.63;2.08;;;;;;;19.86;100.00;95184.69;5029806;28;20201;-69
2023/07/25 06:58:41;;;;;;;3.83;2.28;;;;;;;19.78;100.00;95193.22;5025548;28;20747;-69
2023/07/25 07:01:09;;;;;;;4.28;1.80;;;;;;;20.07;100.00;95185.63;5029642;28;20892;-69
2023/07/25 07:03:37;;;;;;;4.78;1.83;;;;;;;20.14;100.00;95176.31;5028175;28;20698;-69
2023/07/25 07:06:05;;;;;;;3.95;1.80;;;;;;;20.32;100.00;95167.81;5020296;28;20652;-69
2023/07/25 07:08:32;;;;;;;5.05;1.77;;;;;;;20.35;100.00;95161.94;5020948;28;20313;-69
2023/07/25 07:11:03;;;;;;;3.13;1.90;;;;;;;20.48;100.00;95138.19;5031387;28;20237;-69
2023/07/25 07:13:30;;;;;;;5.28;2.25;;;;;;;20.38;100.00;95129.31;5025393;28;20289;-69
2023/07/25 07:15:58;;;;;;;6.75;2.58;;;;;;;20.35;100.00;95133.34;5020034;28;20207;-69
2023/07/25 07:18:26;;;;;;;7.07;2.35;;;;;;;20.44;100.00;95138.97;5029304;28;20292;-69
2023/07/25 07:20:54;;;;;;;4.10;2.30;;;;;;;20.62;100.00;95120.53;5028380;28;20858;-69
2023/07/25 07:23:22;;;;;;;4.82;2.33;;;;;;;20.77;100.00;95122.47;5022105;28;20208;-69
2023/07/25 07:25:53;;;;;;;4.53;1.88;;;;;;;21.05;100.00;95120.88;5021228;28;20206;-69
2023/07/25 07:28:30;;;;;;;2.95;1.63;;;;;;;21.29;100.00;95131.84;5021590;28;20271;-69
2023/07/25 07:30:58;;;;;;;6.32;2.65;;;;;;;21.26;100.00;95143.13;5018532;28;20240;-69
2023/07/25 07:33:26;;;;;;;4.07;1.45;;;;;;;21.32;100.00;95137.50;5020023;28;20226;-69
2023/07/25 07:35:55;;;;;;;10.85;2.08;;;;;;;21.07;100.00;95161.59;5022639;28;21591;-68
2023/07/25 07:38:24;;;;;;;2.70;1.77;;;;;;;21.16;100.00;95149.28;5027697;28;20209;-69
2023/07/25 07:40:52;;;;;;;7.95;1.95;;;;;;;21.05;100.00;95157.56;5025603;28;20226;-69
2023/07/25 07:43:21;;;;;;;4.88;1.90;;;;;;;21.13;100.00;95160.53;5026607;28;20762;-69
2023/07/25 07:45:50;;;;;;;3.70;1.83;;;;;;;21.27;100.00;95156.25;5024587;28;20209;-69
2023/07/25 07:48:18;;;;;;;5.60;2.22;;;;;;;21.36;100.00;95159.16;5025394;28;20206;-69
2023/07/25 07:50:46;;;;;;;3.05;1.45;;;;;;;21.23;100.00;95163.22;5017987;28;20312;-69
2023/07/25 07:53:14;;;;;;;1.23;1.05;;;;;;;20.92;100.00;95166.91;5019317;28;20217;-69
2023/07/25 07:55:41;;;;;;;2.65;1.23;;;;;;;20.99;100.00;95172.00;5018545;28;20201;-69
2023/07/25 07:58:10;;;;;;;4.00;1.30;;;;;;;21.12;100.00;95164.28;5027484;28;20209;-69
2023/07/25 08:00:39;;;;;;;5.35;1.30;;;;;;;21.53;100.00;95160.53;5028362;28;20217;-69
2023/07/25 08:03:07;;;;;;;1.42;0.93;;;;;;;21.11;100.00;95164.53;5029447;28;20220;-69
2023/07/25 08:05:35;;;;;;;3.25;1.27;;;;;;;20.93;100.00;95171.22;5031931;28;20213;-69
2023/07/25 08:08:03;;;;;;;2.67;1.20;;;;;;;21.30;100.00;95161.06;5023651;28;20290;-69
2023/07/25 08:10:31;;;;;;;2.05;1.15;;;;;;;21.55;100.00;95166.44;5026691;28;20233;-69
2023/07/25 08:12:58;;;;;;;2.20;1.25;;;;;;;21.72;100.00;95169.63;5024442;28;20332;-69
2023/07/25 08:15:26;;;;;;;1.90;1.08;;;;;;;21.67;100.00;95175.00;5020271;28;20210;-69
2023/07/25 08:17:56;;;;;;;2.15;1.15;;;;;;;21.70;100.00;95179.81;5022812;28;20661;-69
2023/07/25 08:20:23;;;;;;;1.60;0.82;;;;;;;21.58;100.00;95173.94;5027241;28;20232;-69
2023/07/25 08:22:51;;;;;;;1.38;0.88;;;;;;;21.74;100.00;95167.47;5027720;28;20284;-69
2023/07/25 08:25:22;;;;;;;1.70;0.70;;;;;;;21.95;100.00;95166.38;5020228;28;20312;-69
2023/07/25 08:27:50;;;;;;;2.05;0.93;;;;;;;21.84;100.00;95173.66;5014538;28;20213;-69
2023/07/25 08:30:18;;;;;;;1.35;0.90;;;;;;;21.26;100.00;95175.28;5016372;28;20226;-69
2023/07/25 08:32:46;;;;;;;4.55;0.70;;;;;;;21.38;100.00;95179.28;5018982;28;20228;-69
2023/07/25 08:35:17;;;;;;;1.17;0.80;;;;;;;21.73;100.00;95180.09;5023466;28;20216;-69
2023/07/25 08:37:47;;;;;;;1.25;0.75;;;;;;;21.50;100.00;95177.16;5017184;28;20296;-69
2023/07/25 08:40:15;;;;;;;0.95;0.63;;;;;;;21.27;100.00;95182.22;5025054;28;20224;-69
2023/07/25 08:42:47;;;;;;;0.90;0.70;;;;;;;21.75;100.00;95177.91;5028750;28;20791;-69
2023/07/25 08:45:16;;;;;;;0.75;0.70;;;;;;;21.74;100.00;95178.19;5021925;28;20209;-69
2023/07/25 08:47:47;;;;;;;2.67;1.00;;;;;;;21.48;100.00;95179.28;5019896;28;20207;-69
2023/07/25 08:50:17;;;;;;;4.15;1.02;;;;;;;21.61;100.00;95176.06;5020636;28;20733;-69
2023/07/25 08:52:50;;;;;;;2.10;0.85;;;;;;;21.22;100.00;95175.00;5017228;28;20957;-69
2023/07/25 08:55:26;;;;;;;1.73;0.90;;;;;;;21.45;100.00;95169.09;5019969;28;20292;-69
2023/07/25 08:57:55;;;;;;;1.05;0.52;;;;;;;21.19;100.00;95164.00;5024753;28;20282;-69
2023/07/25 09:00:25;;;;;;;0.57;0.55;;;;;;;21.76;100.00;95159.97;5020539;28;20230;-69
2023/07/25 09:02:53;;;;;;;3.00;0.80;;;;;;;21.86;100.00;95150.03;5019383;28;20288;-69
2023/07/25 09:05:23;;;;;;;2.10;0.80;;;;;;;21.54;100.00;95167.50;5021813;28;21131;-69
2023/07/25 09:07:50;;;;;;;1.35;0.70;;;;;;;21.30;100.00;95177.13;5015271;28;20206;-69
2023/07/25 09:10:29;;;;;;;2.10;0.82;;;;;;;21.55;100.00;95174.50;5018264;28;20237;-68
2023/07/25 09:12:57;;;;;;;2.55;0.75;;;;;;;21.75;100.00;95185.19;5021591;28;21111;-68
2023/07/25 09:15:27;;;;;;;0.75;0.68;;;;;;;21.37;100.00;95191.06;5021109;28;20205;-68
2023/07/25 09:17:58;;;;;;;1.10;0.70;;;;;;;21.31;100.00;95204.72;5018210;28;20288;-68
2023/07/25 09:20:28;;;;;;;2.08;0.60;;;;;;;20.98;100.00;95203.38;5020380;28;20218;-68
2023/07/25 09:22:56;;;;;;;0.60;0.60;;;;;;;20.80;100.00;95196.91;5020437;28;20220;-68
2023/07/25 09:25:33;;;;;;;1.20;0.90;;;;;;;20.72;100.00;95197.38;5020658;28;20202;-68
2023/07/25 09:28:00;;;;;;;2.05;0.80;;;;;;;20.58;100.00;95183.72;5015101;28;20765;-68
2023/07/25 09:30:29;;;;;;;1.27;0.80;;;;;;;20.56;100.00;95187.72;5018103;28;20229;-68
2023/07/25 09:32:57;;;;;;;1.30;1.05;;;;;;;20.40;100.00;95192.22;5014820;28;20257;-68
2023/07/25 09:35:26;;;;;;;0.95;0.60;;;;;;;20.22;100.00;95194.53;5014502;28;20220;-68
2023/07/25 09:38:03;;;;;;;1.25;0.70;;;;;;;19.94;100.00;95191.47;5021786;28;20237;-68
2023/07/25 09:40:39;;;;;;;10.27;0.90;;;;;;;20.29;100.00;95187.09;5023699;28;20220;-68
2023/07/25 09:43:07;;;;;;;1.25;0.75;;;;;;;20.12;100.00;95183.78;5021954;28;20197;-67
2023/07/25 09:45:38;;;;;;;1.48;0.70;;;;;;;20.43;100.00;95174.81;5025194;28;20704;-68
2023/07/25 09:48:06;;;;;;;0.82;0.68;;;;;;;20.21;100.00;95192.91;5024541;28;20317;-68
2023/07/25 09:50:35;;;;;;;1.00;0.50;;;;;;;20.08;100.00;95185.38;5017429;28;20222;-68
2023/07/25 09:53:03;;;;;;;0.88;0.63;;;;;;;19.50;100.00;95187.41;5023746;28;20286;-68
2023/07/25 09:55:33;;;;;;;1.38;0.63;;;;;;;19.83;100.00;95193.25;5022199;28;21111;-68
2023/07/25 09:58:01;;;;;;;3.38;0.50;;;;;;;19.93;100.00;95181.81;5019600;28;20240;-68
2023/07/25 10:00:30;;;;;;;0.70;0.60;;;;;;;20.10;100.00;95191.28;5024173;28;21167;-68
2023/07/25 10:02:59;;;;;;;1.42;0.80;;;;;;;20.23;100.00;95190.81;5017227;28;20197;-68
2023/07/25 10:05:28;;;;;;;1.40;0.70;;;;;;;20.21;100.00;95183.03;5024083;28;20292;-68
2023/07/25 10:07:59;;;;;;;1.77;0.70;;;;;;;20.30;100.00;95172.63;5020202;28;20234;-68
2023/07/25 10:10:31;;;;;;;2.20;0.82;;;;;;;20.32;100.00;95168.63;5015094;28;20238;-68
2023/07/25 10:12:59;;;;;;;1.20;0.90;;;;;;;20.38;100.00;95167.59;5021507;28;20229;-68
2023/07/25 10:15:27;;;;;;;0.60;0.50;;;;;;;20.25;100.00;95168.06;5018650;28;20205;-68
2023/07/25 10:18:18;;;;;;;3.20;0.65;;;;;;;20.56;100.00;95180.47;5022343;28;20201;-68
2023/07/25 10:20:46;;;;;;;0.55;0.52;;;;;;;20.42;100.00;95189.28;5025397;28;20220;-68
2023/07/25 10:23:18;;;;;;;1.38;0.85;;;;;;;20.65;100.00;95197.63;5024490;28;20317;-68
2023/07/25 10:25:47;;;;;;;0.70;0.57;;;;;;;20.75;100.00;95199.56;5023112;28;21140;-68
2023/07/25 10:28:22;;;;;;;1.52;1.10;;;;;;;20.76;100.00;95193.13;5018673;28;20292;-67
2023/07/25 10:30:52;;;;;;;1.90;0.52;;;;;;;20.81;100.00;95201.19;5021730;28;20230;-67
2023/07/25 10:33:20;;;;;;;2.13;0.68;;;;;;;21.01;100.00;95210.84;5019782;28;20277;-66
2023/07/25 10:35:52;;;;;;;1.00;0.70;;;;;;;20.97;100.00;95198.28;5021196;28;20340;-66
2023/07/25 10:38:34;;;;;;;3.03;1.08;;;;;;;21.13;100.00;95198.03;5016145;28;20217;-66
2023/07/25 10:41:11;;;;;;;1.20;0.60;;;;;;;20.94;100.00;95196.94;5019527;28;20315;-66
2023/07/25 10:43:59;;;;;;;1.75;0.50;;;;;;;21.15;100.00;95195.88;5020523;28;20201;-66
2023/07/25 10:46:29;;;;;;;2.80;0.73;;;;;;;20.48;100.00;95198.91;5017810;28;20216;-66
2023/07/25 10:49:00;;;;;;;0.68;0.38;;;;;;;20.51;100.00;95209.91;5016998;28;20213;-66
2023/07/25 10:51:49;;;;;;;0.55;0.30;;;;;;;20.95;100.00;95203.09;5030170;28;20217;-66
2023/07/25 10:54:19;;;;;;;0.73;0.40;;;;;;;21.32;100.00;95201.00;5032313;28;20221;-66
2023/07/25 10:57:14;;;;;;;2.83;0.52;;;;;;;21.73;100.00;95182.78;5024744;28;20324;-66
2023/07/25 10:59:59;;;;;;;0.75;0.45;;;;;;;21.89;100.00;95176.28;5015942;28;20212;-66
2023/07/25 11:02:31;;;;;;;1.15;0.50;;;;;;;21.97;100.00;95175.75;5027564;28;20284;-66
2023/07/25 11:05:22;;;;;;;0.73;0.38;;;;;;;22.07;100.00;95167.66;5018403;28;20712;-66
2023/07/25 11:07:52;;;;;;;0.50;0.50;;;;;;;21.42;100.00;95166.16;5018881;28;20237;-66
2023/07/25 11:10:25;;;;;;;0.20;0.20;;;;;;;22.00;100.00;95161.78;5017241;28;20316;-66
2023/07/25 11:12:54;;;;;;;0.75;0.40;;;;;;;22.01;100.00;95163.41;5021686;28;20233;-66
2023/07/25 11:15:22;;;;;;;1.02;0.50;;;;;;;22.29;100.00;95165.47;5029272;28;20205;-66
2023/07/25 11:17:49;;;;;;;2.45;0.73;;;;;;;22.28;100.00;95156.63;5017226;28;20729;-66
2023/07/25 11:20:18;;;;;;;0.47;0.32;;;;;;;22.29;100.00;95157.44;5022722;28;20276;-66
2023/07/25 11:22:49;;;;;;;1.38;0.80;;;;;;;22.65;100.00;95159.66;5017751;28;20206;-66
2023/07/25 11:25:17;;;;;;;1.58;0.60;;;;;;;22.43;100.00;95159.25;5028982;28;20733;-66
2023/07/25 11:27:48;;;;;;;0.73;0.50;;;;;;;22.57;100.00;95154.88;5026628;28;20206;-66
2023/07/25 11:30:17;;;;;;;0.30;0.30;;;;;;;22.47;100.00;95146.06;5019294;28;21045;-66
2023/07/25 11:32:51;;;;;;;1.30;0.70;;;;;;;23.26;100.00;95134.03;5022049;28;20233;-66
2023/07/25 11:35:19;;;;;;;0.60;0.47;;;;;;;23.77;100.00;95131.41;5026788;28;20209;-66